sensor_id;sensor_type;location;lat;lon;timestamp;temperature;humidity
54178;DHT22;40085;53.004;6.770;2023-03-23T00:00:05;10.90;99.90
54178;DHT22;40085;53.004;6.770;2023-03-23T00:02:31;11.00;99.90
54178;DHT22;40085;53.004;6.770;2023-03-23T00:05:04;10.90;99.90
54178;DHT22;40085;53.004;6.770;2023-03-23T00:07:30;11.00;99.90
54178;DHT22;40085;53.004;6.770;2023-03-23T00:09:56;11.10;99.90
54178;DHT22;40085;53.004;6.770;2023-03-23T00:12:26;11.00;99.90
54178;DHT22;40085;53.004;6.770;2023-03-23T00:15:01;11.00;99.90
54178;DHT22;40085;53.004;6.770;2023-03-23T00:17:28;11.10;99.90
54178;DHT22;40085;53.004;6.770;2023-03-23T00:19:54;11.00;99.90
54178;DHT22;40085;53.004;6.770;2023-03-23T00:22:19;11.00;99.90
54178;DHT22;40085;53.004;6.770;2023-03-23T00:24:47;11.00;99.90
54178;DHT22;40085;53.004;6.770;2023-03-23T00:27:15;11.00;99.90
54178;DHT22;40085;53.004;6.770;2023-03-23T00:29:41;11.00;99.90
54178;DHT22;40085;53.004;6.770;2023-03-23T00:32:08;11.10;99.90
54178;DHT22;40085;53.004;6.770;2023-03-23T00:34:40;11.00;99.90
54178;DHT22;40085;53.004;6.770;2023-03-23T00:37:08;11.10;99.90
54178;DHT22;40085;53.004;6.770;2023-03-23T00:39:35;11.00;99.90
54178;DHT22;40085;53.004;6.770;2023-03-23T00:42:04;11.10;99.90
54178;DHT22;40085;53.004;6.770;2023-03-23T00:44:32;11.10;99.90
54178;DHT22;40085;53.004;6.770;2023-03-23T00:46:59;11.10;99.90
54178;DHT22;40085;53.004;6.770;2023-03-23T00:49:25;11.10;99.90
54178;DHT22;40085;53.004;6.770;2023-03-23T00:51:56;11.00;99.90
54178;DHT22;40085;53.004;6.770;2023-03-23T00:54:24;11.00;99.90
54178;DHT22;40085;53.004;6.770;2023-03-23T00:56:50;11.00;99.90
54178;DHT22;40085;53.004;6.770;2023-03-23T00:59:16;11.00;99.90
54178;DHT22;40085;53.004;6.770;2023-03-23T01:01:42;11.00;99.90
54178;DHT22;40085;53.004;6.770;2023-03-23T01:04:08;11.10;99.90
54178;DHT22;40085;53.004;6.770;2023-03-23T01:06:39;12.30;99.90
54178;DHT22;40085;53.004;6.770;2023-03-23T01:09:07;11.20;99.90
54178;DHT22;40085;53.004;6.770;2023-03-23T01:11:33;11.10;99.90
54178;DHT22;40085;53.004;6.770;2023-03-23T01:13:59;11.10;99.90
54178;DHT22;40085;53.004;6.770;2023-03-23T01:16:25;11.10;99.90
54178;DHT22;40085;53.004;6.770;2023-03-23T01:18:51;11.10;99.90
54178;DHT22;40085;53.004;6.770;2023-03-23T01:21:18;11.10;99.90
54178;DHT22;40085;53.004;6.770;2023-03-23T01:23:45;11.20;99.90
54178;DHT22;40085;53.004;6.770;2023-03-23T01:26:12;11.10;99.90
54178;DHT22;40085;53.004;6.770;2023-03-23T01:28:38;11.10;99.90
54178;DHT22;40085;53.004;6.770;2023-03-23T01:31:06;11.10;99.90
54178;DHT22;40085;53.004;6.770;2023-03-23T01:33:33;11.10;99.90
54178;DHT22;40085;53.004;6.770;2023-03-23T01:36:04;11.00;99.90
54178;DHT22;40085;53.004;6.770;2023-03-23T01:38:30;11.00;99.90
54178;DHT22;40085;53.004;6.770;2023-03-23T01:40:56;11.10;99.90
54178;DHT22;40085;53.004;6.770;2023-03-23T01:43:22;11.10;99.90
54178;DHT22;40085;53.004;6.770;2023-03-23T01:45:47;11.00;99.90
54178;DHT22;40085;53.004;6.770;2023-03-23T01:48:26;11.10;99.90
54178;DHT22;40085;53.004;6.770;2023-03-23T01:51:12;11.10;99.90
54178;DHT22;40085;53.004;6.770;2023-03-23T01:53:42;11.10;99.90
54178;DHT22;40085;53.004;6.770;2023-03-23T01:56:10;11.10;99.90
54178;DHT22;40085;53.004;6.770;2023-03-23T01:58:39;11.20;99.90
54178;DHT22;40085;53.004;6.770;2023-03-23T02:01:09;11.20;99.90
54178;DHT22;40085;53.004;6.770;2023-03-23T02:03:38;11.20;99.90
54178;DHT22;40085;53.004;6.770;2023-03-23T02:06:05;11.20;99.90
54178;DHT22;40085;53.004;6.770;2023-03-23T02:08:32;11.20;99.90
54178;DHT22;40085;53.004;6.770;2023-03-23T02:10:59;11.20;99.90
54178;DHT22;40085;53.004;6.770;2023-03-23T02:13:25;11.20;99.90
54178;DHT22;40085;53.004;6.770;2023-03-23T02:16:07;11.20;99.90
54178;DHT22;40085;53.004;6.770;2023-03-23T02:21:20;11.10;99.90
54178;DHT22;40085;53.004;6.770;2023-03-23T02:26:53;11.10;99.90
54178;DHT22;40085;53.004;6.770;2023-03-23T02:34:52;11.10;99.90
54178;DHT22;40085;53.004;6.770;2023-03-23T02:37:36;11.10;99.90
54178;DHT22;40085;53.004;6.770;2023-03-23T02:40:06;11.10;99.90
54178;DHT22;40085;53.004;6.770;2023-03-23T02:42:37;11.10;99.90
54178;DHT22;40085;53.004;6.770;2023-03-23T02:45:07;11.10;99.90
54178;DHT22;40085;53.004;6.770;2023-03-23T02:47:35;11.10;99.90
54178;DHT22;40085;53.004;6.770;2023-03-23T02:50:05;11.90;99.90
54178;DHT22;40085;53.004;6.770;2023-03-23T02:52:33;11.10;99.90
54178;DHT22;40085;53.004;6.770;2023-03-23T02:55:00;11.10;99.90
54178;DHT22;40085;53.004;6.770;2023-03-23T02:57:27;11.10;99.90
54178;DHT22;40085;53.004;6.770;2023-03-23T02:59:53;11.10;99.90
54178;DHT22;40085;53.004;6.770;2023-03-23T03:02:26;11.10;99.90
54178;DHT22;40085;53.004;6.770;2023-03-23T03:05:11;12.20;99.90
54178;DHT22;40085;53.004;6.770;2023-03-23T03:13:14;11.20;99.90
54178;DHT22;40085;53.004;6.770;2023-03-23T03:15:51;11.10;99.90
54178;DHT22;40085;53.004;6.770;2023-03-23T03:18:29;11.10;99.90
54178;DHT22;40085;53.004;6.770;2023-03-23T03:21:02;11.20;99.90
54178;DHT22;40085;53.004;6.770;2023-03-23T03:23:28;11.20;99.90
54178;DHT22;40085;53.004;6.770;2023-03-23T03:25:55;11.10;99.90
54178;DHT22;40085;53.004;6.770;2023-03-23T03:28:23;11.10;99.90
54178;DHT22;40085;53.004;6.770;2023-03-23T03:30:53;11.10;99.90
54178;DHT22;40085;53.004;6.770;2023-03-23T03:33:20;11.90;99.90
54178;DHT22;40085;53.004;6.770;2023-03-23T03:35:51;11.10;99.90
54178;DHT22;40085;53.004;6.770;2023-03-23T03:38:17;11.20;99.90
54178;DHT22;40085;53.004;6.770;2023-03-23T03:40:43;11.20;99.90
54178;DHT22;40085;53.004;6.770;2023-03-23T03:43:08;11.20;99.90
54178;DHT22;40085;53.004;6.770;2023-03-23T03:45:34;11.10;99.90
54178;DHT22;40085;53.004;6.770;2023-03-23T03:48:00;11.10;99.90
54178;DHT22;40085;53.004;6.770;2023-03-23T03:50:27;11.20;99.90
54178;DHT22;40085;53.004;6.770;2023-03-23T03:52:53;11.20;99.90
54178;DHT22;40085;53.004;6.770;2023-03-23T03:55:19;11.20;99.90
54178;DHT22;40085;53.004;6.770;2023-03-23T03:57:44;11.20;99.90
54178;DHT22;40085;53.004;6.770;2023-03-23T04:00:10;11.20;99.90
54178;DHT22;40085;53.004;6.770;2023-03-23T04:02:45;11.20;99.90
54178;DHT22;40085;53.004;6.770;2023-03-23T04:05:16;11.10;99.90
54178;DHT22;40085;53.004;6.770;2023-03-23T04:07:42;11.10;99.90
54178;DHT22;40085;53.004;6.770;2023-03-23T04:10:09;11.20;99.90
54178;DHT22;40085;53.004;6.770;2023-03-23T04:12:36;11.20;99.90
54178;DHT22;40085;53.004;6.770;2023-03-23T04:15:03;11.20;99.90
54178;DHT22;40085;53.004;6.770;2023-03-23T04:17:29;11.20;99.90
54178;DHT22;40085;53.004;6.770;2023-03-23T04:19:55;11.20;99.90
54178;DHT22;40085;53.004;6.770;2023-03-23T04:22:26;11.20;99.90
54178;DHT22;40085;53.004;6.770;2023-03-23T04:24:59;11.20;99.90
54178;DHT22;40085;53.004;6.770;2023-03-23T04:27:26;12.00;99.90
54178;DHT22;40085;53.004;6.770;2023-03-23T04:29:57;11.20;99.90
54178;DHT22;40085;53.004;6.770;2023-03-23T04:32:25;11.30;99.90
54178;DHT22;40085;53.004;6.770;2023-03-23T04:34:55;11.40;99.90
54178;DHT22;40085;53.004;6.770;2023-03-23T04:37:23;11.30;99.90
54178;DHT22;40085;53.004;6.770;2023-03-23T04:39:55;11.40;99.90
54178;DHT22;40085;53.004;6.770;2023-03-23T04:42:27;11.40;99.90
54178;DHT22;40085;53.004;6.770;2023-03-23T04:44:52;11.40;99.90
54178;DHT22;40085;53.004;6.770;2023-03-23T04:47:19;11.40;99.90
54178;DHT22;40085;53.004;6.770;2023-03-23T04:49:45;11.30;99.90
54178;DHT22;40085;53.004;6.770;2023-03-23T04:52:11;11.30;99.90
54178;DHT22;40085;53.004;6.770;2023-03-23T04:54:36;11.30;99.90
54178;DHT22;40085;53.004;6.770;2023-03-23T04:57:03;11.20;99.90
54178;DHT22;40085;53.004;6.770;2023-03-23T04:59:28;11.20;99.90
54178;DHT22;40085;53.004;6.770;2023-03-23T05:01:56;11.10;99.90
54178;DHT22;40085;53.004;6.770;2023-03-23T05:04:22;10.80;99.90
54178;DHT22;40085;53.004;6.770;2023-03-23T05:06:53;11.10;99.90
54178;DHT22;40085;53.004;6.770;2023-03-23T05:09:19;9.70;99.90
54178;DHT22;40085;53.004;6.770;2023-03-23T05:11:45;10.00;99.90
54178;DHT22;40085;53.004;6.770;2023-03-23T05:14:10;10.00;99.90
54178;DHT22;40085;53.004;6.770;2023-03-23T05:16:36;9.90;99.90
54178;DHT22;40085;53.004;6.770;2023-03-23T05:19:03;10.00;99.90
54178;DHT22;40085;53.004;6.770;2023-03-23T05:21:30;10.00;99.90
54178;DHT22;40085;53.004;6.770;2023-03-23T05:23:56;9.90;99.90
54178;DHT22;40085;53.004;6.770;2023-03-23T05:26:22;9.90;99.90
54178;DHT22;40085;53.004;6.770;2023-03-23T05:28:50;9.90;99.90
54178;DHT22;40085;53.004;6.770;2023-03-23T05:31:18;9.90;99.90
54178;DHT22;40085;53.004;6.770;2023-03-23T05:33:44;9.80;99.90
54178;DHT22;40085;53.004;6.770;2023-03-23T05:36:11;10.30;99.90
54178;DHT22;40085;53.004;6.770;2023-03-23T05:38:39;9.80;99.90
54178;DHT22;40085;53.004;6.770;2023-03-23T05:41:07;10.20;99.90
54178;DHT22;40085;53.004;6.770;2023-03-23T05:43:33;9.70;99.90
54178;DHT22;40085;53.004;6.770;2023-03-23T05:45:59;9.70;99.90
54178;DHT22;40085;53.004;6.770;2023-03-23T05:48:25;9.70;99.90
54178;DHT22;40085;53.004;6.770;2023-03-23T05:50:51;9.70;99.90
54178;DHT22;40085;53.004;6.770;2023-03-23T05:53:17;9.70;99.90
54178;DHT22;40085;53.004;6.770;2023-03-23T05:55:43;9.70;99.90
54178;DHT22;40085;53.004;6.770;2023-03-23T05:58:08;9.80;99.90
54178;DHT22;40085;53.004;6.770;2023-03-23T06:00:34;9.90;99.90
54178;DHT22;40085;53.004;6.770;2023-03-23T06:03:00;9.90;99.90
54178;DHT22;40085;53.004;6.770;2023-03-23T06:05:26;9.90;99.90
54178;DHT22;40085;53.004;6.770;2023-03-23T06:07:52;10.00;99.90
54178;DHT22;40085;53.004;6.770;2023-03-23T06:10:19;10.00;99.90
54178;DHT22;40085;53.004;6.770;2023-03-23T06:12:44;10.00;99.90
54178;DHT22;40085;53.004;6.770;2023-03-23T06:15:11;10.10;99.90
54178;DHT22;40085;53.004;6.770;2023-03-23T06:17:37;10.10;99.90
54178;DHT22;40085;53.004;6.770;2023-03-23T06:20:04;10.10;99.90
54178;DHT22;40085;53.004;6.770;2023-03-23T06:22:39;10.10;99.90
54178;DHT22;40085;53.004;6.770;2023-03-23T06:25:09;10.10;99.90
54178;DHT22;40085;53.004;6.770;2023-03-23T06:27:36;10.20;99.90
54178;DHT22;40085;53.004;6.770;2023-03-23T06:30:04;10.10;99.90
54178;DHT22;40085;53.004;6.770;2023-03-23T06:32:31;10.20;99.90
54178;DHT22;40085;53.004;6.770;2023-03-23T06:34:57;10.10;99.90
54178;DHT22;40085;53.004;6.770;2023-03-23T06:37:23;10.60;99.90
54178;DHT22;40085;53.004;6.770;2023-03-23T06:39:50;10.20;99.90
54178;DHT22;40085;53.004;6.770;2023-03-23T06:42:15;10.20;99.90
54178;DHT22;40085;53.004;6.770;2023-03-23T06:44:42;10.20;99.90
54178;DHT22;40085;53.004;6.770;2023-03-23T06:47:07;10.20;99.90
54178;DHT22;40085;53.004;6.770;2023-03-23T06:49:33;10.20;99.90
54178;DHT22;40085;53.004;6.770;2023-03-23T06:51:59;10.90;99.90
54178;DHT22;40085;53.004;6.770;2023-03-23T06:54:27;10.30;99.90
54178;DHT22;40085;53.004;6.770;2023-03-23T06:56:53;10.30;99.90
54178;DHT22;40085;53.004;6.770;2023-03-23T06:59:18;10.30;99.90
54178;DHT22;40085;53.004;6.770;2023-03-23T07:01:44;10.40;99.90
54178;DHT22;40085;53.004;6.770;2023-03-23T07:04:12;10.40;99.90
54178;DHT22;40085;53.004;6.770;2023-03-23T07:06:37;10.50;99.90
54178;DHT22;40085;53.004;6.770;2023-03-23T07:09:03;10.50;99.90
54178;DHT22;40085;53.004;6.770;2023-03-23T07:11:29;10.60;99.90
54178;DHT22;40085;53.004;6.770;2023-03-23T07:13:55;10.60;99.90
54178;DHT22;40085;53.004;6.770;2023-03-23T07:16:20;10.60;99.90
54178;DHT22;40085;53.004;6.770;2023-03-23T07:18:46;10.60;99.90
54178;DHT22;40085;53.004;6.770;2023-03-23T07:21:12;10.60;99.90
54178;DHT22;40085;53.004;6.770;2023-03-23T07:23:37;10.70;99.90
54178;DHT22;40085;53.004;6.770;2023-03-23T07:26:03;11.60;99.90
54178;DHT22;40085;53.004;6.770;2023-03-23T07:28:29;10.70;99.90
54178;DHT22;40085;53.004;6.770;2023-03-23T07:30:55;10.70;99.90
54178;DHT22;40085;53.004;6.770;2023-03-23T07:33:21;10.70;99.90
54178;DHT22;40085;53.004;6.770;2023-03-23T07:35:47;10.70;99.90
54178;DHT22;40085;53.004;6.770;2023-03-23T07:38:13;10.80;99.90
54178;DHT22;40085;53.004;6.770;2023-03-23T07:40:39;10.80;99.90
54178;DHT22;40085;53.004;6.770;2023-03-23T07:43:05;11.50;99.90
54178;DHT22;40085;53.004;6.770;2023-03-23T07:45:31;10.90;99.90
54178;DHT22;40085;53.004;6.770;2023-03-23T07:47:57;11.00;99.90
54178;DHT22;40085;53.004;6.770;2023-03-23T07:50:23;11.00;99.90
54178;DHT22;40085;53.004;6.770;2023-03-23T07:52:53;12.00;99.90
54178;DHT22;40085;53.004;6.770;2023-03-23T07:55:19;11.20;99.90
54178;DHT22;40085;53.004;6.770;2023-03-23T07:57:46;11.20;99.90
54178;DHT22;40085;53.004;6.770;2023-03-23T08:00:13;11.50;99.90
54178;DHT22;40085;53.004;6.770;2023-03-23T08:02:51;11.30;99.90
54178;DHT22;40085;53.004;6.770;2023-03-23T08:05:18;11.30;99.90
54178;DHT22;40085;53.004;6.770;2023-03-23T08:07:44;11.40;99.90
54178;DHT22;40085;53.004;6.770;2023-03-23T08:10:12;11.50;99.90
54178;DHT22;40085;53.004;6.770;2023-03-23T08:12:39;11.50;99.90
54178;DHT22;40085;53.004;6.770;2023-03-23T08:15:06;11.50;99.90
54178;DHT22;40085;53.004;6.770;2023-03-23T08:17:32;11.50;99.90
54178;DHT22;40085;53.004;6.770;2023-03-23T08:19:58;12.00;99.90
54178;DHT22;40085;53.004;6.770;2023-03-23T08:22:24;11.50;99.90
54178;DHT22;40085;53.004;6.770;2023-03-23T08:24:50;11.50;99.90
54178;DHT22;40085;53.004;6.770;2023-03-23T08:27:15;11.50;99.90
54178;DHT22;40085;53.004;6.770;2023-03-23T08:29:43;11.60;99.90
54178;DHT22;40085;53.004;6.770;2023-03-23T08:32:09;11.60;99.90
54178;DHT22;40085;53.004;6.770;2023-03-23T08:34:36;11.60;99.90
54178;DHT22;40085;53.004;6.770;2023-03-23T08:37:01;11.60;99.90
54178;DHT22;40085;53.004;6.770;2023-03-23T08:39:28;11.70;99.90
54178;DHT22;40085;53.004;6.770;2023-03-23T08:41:55;11.70;99.90
54178;DHT22;40085;53.004;6.770;2023-03-23T08:44:21;11.60;99.90
54178;DHT22;40085;53.004;6.770;2023-03-23T08:46:46;11.60;99.90
54178;DHT22;40085;53.004;6.770;2023-03-23T08:49:12;11.60;99.90
54178;DHT22;40085;53.004;6.770;2023-03-23T08:51:38;11.60;99.90
54178;DHT22;40085;53.004;6.770;2023-03-23T08:54:03;11.60;99.90
54178;DHT22;40085;53.004;6.770;2023-03-23T08:56:29;11.60;99.90
54178;DHT22;40085;53.004;6.770;2023-03-23T08:58:55;11.60;99.90
54178;DHT22;40085;53.004;6.770;2023-03-23T09:01:20;11.80;99.90
54178;DHT22;40085;53.004;6.770;2023-03-23T09:03:46;11.70;99.90
54178;DHT22;40085;53.004;6.770;2023-03-23T09:06:11;11.70;99.90
54178;DHT22;40085;53.004;6.770;2023-03-23T09:08:38;11.70;99.90
54178;DHT22;40085;53.004;6.770;2023-03-23T09:11:07;11.60;99.90
54178;DHT22;40085;53.004;6.770;2023-03-23T09:13:34;11.60;99.90
54178;DHT22;40085;53.004;6.770;2023-03-23T09:16:00;11.60;99.90
54178;DHT22;40085;53.004;6.770;2023-03-23T09:18:26;11.50;99.90
54178;DHT22;40085;53.004;6.770;2023-03-23T09:20:52;11.50;99.90
54178;DHT22;40085;53.004;6.770;2023-03-23T09:23:19;12.20;99.90
54178;DHT22;40085;53.004;6.770;2023-03-23T09:25:46;11.80;99.90
54178;DHT22;40085;53.004;6.770;2023-03-23T09:28:12;11.90;99.90
54178;DHT22;40085;53.004;6.770;2023-03-23T09:30:40;12.20;99.90
54178;DHT22;40085;53.004;6.770;2023-03-23T09:33:06;12.20;99.90
54178;DHT22;40085;53.004;6.770;2023-03-23T09:35:34;12.30;99.90
54178;DHT22;40085;53.004;6.770;2023-03-23T09:38:01;12.20;99.90
54178;DHT22;40085;53.004;6.770;2023-03-23T09:45:55;12.40;99.90
54178;DHT22;40085;53.004;6.770;2023-03-23T09:48:45;12.40;99.90
54178;DHT22;40085;53.004;6.770;2023-03-23T09:56:40;13.00;99.90
54178;DHT22;40085;53.004;6.770;2023-03-23T10:01:44;13.70;99.90
54178;DHT22;40085;53.004;6.770;2023-03-23T10:06:40;13.70;99.20
54178;DHT22;40085;53.004;6.770;2023-03-23T10:09:08;13.80;74.20
54178;DHT22;40085;53.004;6.770;2023-03-23T10:11:44;13.90;1.00
54178;DHT22;40085;53.004;6.770;2023-03-23T10:16:47;13.80;1.00
54178;DHT22;40085;53.004;6.770;2023-03-23T10:22:09;13.80;1.00
54178;DHT22;40085;53.004;6.770;2023-03-23T10:24:50;13.80;1.00
54178;DHT22;40085;53.004;6.770;2023-03-23T10:27:30;13.80;1.00
54178;DHT22;40085;53.004;6.770;2023-03-23T10:33:01;13.80;1.00
54178;DHT22;40085;53.004;6.770;2023-03-23T10:36:19;13.80;99.90
54178;DHT22;40085;53.004;6.770;2023-03-23T10:38:23;13.70;99.90
54178;DHT22;40085;53.004;6.770;2023-03-23T10:40:59;13.50;99.90
54178;DHT22;40085;53.004;6.770;2023-03-23T10:43:26;13.30;99.90
54178;DHT22;40085;53.004;6.770;2023-03-23T10:46:00;13.50;99.90
54178;DHT22;40085;53.004;6.770;2023-03-23T10:48:32;13.50;99.90
54178;DHT22;40085;53.004;6.770;2023-03-23T10:51:02;13.70;99.90
54178;DHT22;40085;53.004;6.770;2023-03-23T10:53:36;13.70;99.90
54178;DHT22;40085;53.004;6.770;2023-03-23T10:56:04;13.90;99.90
54178;DHT22;40085;53.004;6.770;2023-03-23T10:58:33;14.10;99.90
54178;DHT22;40085;53.004;6.770;2023-03-23T11:01:00;14.40;99.90
54178;DHT22;40085;53.004;6.770;2023-03-23T11:03:40;14.50;99.90
54178;DHT22;40085;53.004;6.770;2023-03-23T11:06:29;14.60;1.00
54178;DHT22;40085;53.004;6.770;2023-03-23T11:09:33;14.60;98.70
54178;DHT22;40085;53.004;6.770;2023-03-23T11:11:59;14.60;23.20
54178;DHT22;40085;53.004;6.770;2023-03-23T11:14:33;14.60;31.30
54178;DHT22;40085;53.004;6.770;2023-03-23T11:17:02;14.70;99.90
54178;DHT22;40085;53.004;6.770;2023-03-23T11:19:30;15.10;99.90
54178;DHT22;40085;53.004;6.770;2023-03-23T11:24:43;14.80;2.20
54178;DHT22;40085;53.004;6.770;2023-03-23T11:27:09;15.90;1.00
54178;DHT22;40085;53.004;6.770;2023-03-23T11:29:41;15.10;99.90
54178;DHT22;40085;53.004;6.770;2023-03-23T11:32:10;15.20;1.00
54178;DHT22;40085;53.004;6.770;2023-03-23T11:34:44;15.30;1.00
54178;DHT22;40085;53.004;6.770;2023-03-23T11:39:59;15.40;99.90
54178;DHT22;40085;53.004;6.770;2023-03-23T11:42:34;13.40;47.00
54178;DHT22;40085;53.004;6.770;2023-03-23T11:45:30;15.70;99.90
54178;DHT22;40085;53.004;6.770;2023-03-23T11:56:25;15.10;99.90
54178;DHT22;40085;53.004;6.770;2023-03-23T11:58:54;15.00;99.90
54178;DHT22;40085;53.004;6.770;2023-03-23T12:07:15;14.50;99.90
54178;DHT22;40085;53.004;6.770;2023-03-23T12:10:05;14.60;1.00
54178;DHT22;40085;53.004;6.770;2023-03-23T12:15:30;14.70;99.90
54178;DHT22;40085;53.004;6.770;2023-03-23T12:21:03;14.70;99.90
54178;DHT22;40085;53.004;6.770;2023-03-23T12:24:04;15.30;12.30
54178;DHT22;40085;53.004;6.770;2023-03-23T12:27:00;15.80;99.90
54178;DHT22;40085;53.004;6.770;2023-03-23T12:29:55;16.30;92.50
54178;DHT22;40085;53.004;6.770;2023-03-23T12:33:02;16.60;99.90
54178;DHT22;40085;53.004;6.770;2023-03-23T12:35:52;16.40;99.90
54178;DHT22;40085;53.004;6.770;2023-03-23T12:44:11;15.70;99.90
54178;DHT22;40085;53.004;6.770;2023-03-23T12:49:22;15.70;99.90
54178;DHT22;40085;53.004;6.770;2023-03-23T12:51:58;15.40;1.00
54178;DHT22;40085;53.004;6.770;2023-03-23T13:02:40;16.60;99.90
54178;DHT22;40085;53.004;6.770;2023-03-23T13:05:12;17.00;94.70
54178;DHT22;40085;53.004;6.770;2023-03-23T13:07:46;17.20;1.00
54178;DHT22;40085;53.004;6.770;2023-03-23T13:10:21;17.30;1.00
54178;DHT22;40085;53.004;6.770;2023-03-23T13:12:48;17.30;1.00
54178;DHT22;40085;53.004;6.770;2023-03-23T13:18:17;17.20;1.00
54178;DHT22;40085;53.004;6.770;2023-03-23T13:20:54;17.10;1.00
54178;DHT22;40085;53.004;6.770;2023-03-23T13:23:55;16.70;99.90
54178;DHT22;40085;53.004;6.770;2023-03-23T13:26:22;16.30;99.90
54178;DHT22;40085;53.004;6.770;2023-03-23T13:31:23;16.10;99.90
54178;DHT22;40085;53.004;6.770;2023-03-23T13:33:53;15.90;99.90
54178;DHT22;40085;53.004;6.770;2023-03-23T13:36:33;16.30;99.90
54178;DHT22;40085;53.004;6.770;2023-03-23T13:39:00;16.60;99.90
54178;DHT22;40085;53.004;6.770;2023-03-23T13:41:26;16.70;99.90
54178;DHT22;40085;53.004;6.770;2023-03-23T13:43:54;17.40;99.90
54178;DHT22;40085;53.004;6.770;2023-03-23T13:46:31;17.10;99.90
54178;DHT22;40085;53.004;6.770;2023-03-23T13:49:18;16.50;99.90
54178;DHT22;40085;53.004;6.770;2023-03-23T14:01:53;15.20;99.90
54178;DHT22;40085;53.004;6.770;2023-03-23T14:04:21;15.00;99.90
54178;DHT22;40085;53.004;6.770;2023-03-23T14:06:49;15.50;99.90
54178;DHT22;40085;53.004;6.770;2023-03-23T14:09:19;14.80;1.00
54178;DHT22;40085;53.004;6.770;2023-03-23T14:11:57;15.00;1.00
54178;DHT22;40085;53.004;6.770;2023-03-23T14:14:32;15.10;1.00
54178;DHT22;40085;53.004;6.770;2023-03-23T14:17:14;15.30;1.00
54178;DHT22;40085;53.004;6.770;2023-03-23T14:19:42;15.10;1.00
54178;DHT22;40085;53.004;6.770;2023-03-23T14:22:35;15.10;1.00
54178;DHT22;40085;53.004;6.770;2023-03-23T14:25:13;15.10;1.00
54178;DHT22;40085;53.004;6.770;2023-03-23T14:27:39;15.60;1.00
54178;DHT22;40085;53.004;6.770;2023-03-23T14:30:07;15.50;1.00
54178;DHT22;40085;53.004;6.770;2023-03-23T14:32:34;15.60;1.00
54178;DHT22;40085;53.004;6.770;2023-03-23T14:35:05;15.50;1.00
54178;DHT22;40085;53.004;6.770;2023-03-23T14:37:32;15.40;1.00
54178;DHT22;40085;53.004;6.770;2023-03-23T14:40:01;15.40;1.00
54178;DHT22;40085;53.004;6.770;2023-03-23T14:42:32;16.10;1.00
54178;DHT22;40085;53.004;6.770;2023-03-23T14:45:00;14.80;1.00
54178;DHT22;40085;53.004;6.770;2023-03-23T14:47:38;15.40;13.40
54178;DHT22;40085;53.004;6.770;2023-03-23T14:50:26;14.70;90.30
54178;DHT22;40085;53.004;6.770;2023-03-23T14:52:57;14.50;99.90
54178;DHT22;40085;53.004;6.770;2023-03-23T14:55:23;14.20;99.90
54178;DHT22;40085;53.004;6.770;2023-03-23T14:57:51;14.40;99.90
54178;DHT22;40085;53.004;6.770;2023-03-23T15:00:30;14.90;99.90
54178;DHT22;40085;53.004;6.770;2023-03-23T15:02:58;15.60;42.30
54178;DHT22;40085;53.004;6.770;2023-03-23T15:05:33;16.30;99.90
54178;DHT22;40085;53.004;6.770;2023-03-23T15:08:06;16.00;99.90
54178;DHT22;40085;53.004;6.770;2023-03-23T15:10:33;16.20;98.40
54178;DHT22;40085;53.004;6.770;2023-03-23T15:12:59;17.10;65.20
54178;DHT22;40085;53.004;6.770;2023-03-23T15:17:56;17.70;99.90
54178;DHT22;40085;53.004;6.770;2023-03-23T15:20:26;18.50;99.90
54178;DHT22;40085;53.004;6.770;2023-03-23T15:22:53;17.50;99.90
54178;DHT22;40085;53.004;6.770;2023-03-23T15:28:15;17.70;99.90
54178;DHT22;40085;53.004;6.770;2023-03-23T15:30:53;17.80;99.90
54178;DHT22;40085;53.004;6.770;2023-03-23T15:33:20;17.50;99.90
54178;DHT22;40085;53.004;6.770;2023-03-23T15:35:54;17.30;99.90
54178;DHT22;40085;53.004;6.770;2023-03-23T15:38:31;17.10;99.90
54178;DHT22;40085;53.004;6.770;2023-03-23T15:40:59;16.60;60.30
54178;DHT22;40085;53.004;6.770;2023-03-23T15:43:28;16.60;80.80
54178;DHT22;40085;53.004;6.770;2023-03-23T15:45:59;16.30;96.00
54178;DHT22;40085;53.004;6.770;2023-03-23T15:50:55;16.30;99.90
54178;DHT22;40085;53.004;6.770;2023-03-23T15:53:29;16.00;98.10
54178;DHT22;40085;53.004;6.770;2023-03-23T15:55:55;16.10;99.90
54178;DHT22;40085;53.004;6.770;2023-03-23T15:58:21;16.00;99.90
54178;DHT22;40085;53.004;6.770;2023-03-23T16:00:48;16.70;99.90
54178;DHT22;40085;53.004;6.770;2023-03-23T16:03:24;15.70;99.90
54178;DHT22;40085;53.004;6.770;2023-03-23T16:05:53;15.70;99.90
54178;DHT22;40085;53.004;6.770;2023-03-23T16:08:19;15.60;99.90
54178;DHT22;40085;53.004;6.770;2023-03-23T16:10:44;15.90;99.90
54178;DHT22;40085;53.004;6.770;2023-03-23T16:13:10;15.80;99.90
54178;DHT22;40085;53.004;6.770;2023-03-23T16:15:36;15.80;99.90
54178;DHT22;40085;53.004;6.770;2023-03-23T16:18:01;15.90;99.90
54178;DHT22;40085;53.004;6.770;2023-03-23T16:20:28;15.70;99.90
54178;DHT22;40085;53.004;6.770;2023-03-23T16:22:54;15.40;99.90
54178;DHT22;40085;53.004;6.770;2023-03-23T16:25:20;15.40;99.90
54178;DHT22;40085;53.004;6.770;2023-03-23T16:27:46;15.30;99.90
54178;DHT22;40085;53.004;6.770;2023-03-23T16:30:19;15.00;99.90
54178;DHT22;40085;53.004;6.770;2023-03-23T16:32:46;14.90;99.90
54178;DHT22;40085;53.004;6.770;2023-03-23T16:35:13;14.50;99.90
54178;DHT22;40085;53.004;6.770;2023-03-23T16:37:53;15.10;99.90
54178;DHT22;40085;53.004;6.770;2023-03-23T16:40:20;15.10;99.90
54178;DHT22;40085;53.004;6.770;2023-03-23T16:42:46;15.00;99.90
54178;DHT22;40085;53.004;6.770;2023-03-23T16:45:13;15.30;99.90
54178;DHT22;40085;53.004;6.770;2023-03-23T16:47:39;14.70;99.90
54178;DHT22;40085;53.004;6.770;2023-03-23T16:50:07;14.80;99.90
54178;DHT22;40085;53.004;6.770;2023-03-23T16:52:40;14.70;99.90
54178;DHT22;40085;53.004;6.770;2023-03-23T16:55:07;14.70;99.90
54178;DHT22;40085;53.004;6.770;2023-03-23T16:57:33;14.60;1.00
54178;DHT22;40085;53.004;6.770;2023-03-23T17:00:04;14.50;1.00
54178;DHT22;40085;53.004;6.770;2023-03-23T17:02:30;14.40;1.00
54178;DHT22;40085;53.004;6.770;2023-03-23T17:04:56;14.20;95.40
54178;DHT22;40085;53.004;6.770;2023-03-23T17:07:23;14.00;99.90
54178;DHT22;40085;53.004;6.770;2023-03-23T17:09:48;14.20;1.00
54178;DHT22;40085;53.004;6.770;2023-03-23T17:12:14;13.80;96.80
54178;DHT22;40085;53.004;6.770;2023-03-23T17:14:40;13.60;99.90
54178;DHT22;40085;53.004;6.770;2023-03-23T17:17:06;13.80;1.00
54178;DHT22;40085;53.004;6.770;2023-03-23T17:19:32;13.50;99.90
54178;DHT22;40085;53.004;6.770;2023-03-23T17:21:58;13.40;94.50
54178;DHT22;40085;53.004;6.770;2023-03-23T17:24:24;14.20;1.00
54178;DHT22;40085;53.004;6.770;2023-03-23T17:26:49;13.40;99.90
54178;DHT22;40085;53.004;6.770;2023-03-23T17:29:15;13.30;99.90
54178;DHT22;40085;53.004;6.770;2023-03-23T17:31:41;13.30;56.10